Time;durP1;ratioP1;P1;durP2;ratioP2;P2;SDS_P1;SDS_P2;PMS_P1;PMS_P2;Temp;Humidity;BMP_temperature;BMP_pressure;BME280_temperature;BME280_humidity;BME280_pressure;Samples;Min_cycle;Max_cycle;Signal;HPM_P1;HPM_P2
2023/07/12 00:00:40;;;;;;;;;;;25.80;59.00;;;;;;5088695;28;19920;-59
2023/07/12 00:03:06;;;;;;;;;;;25.80;59.00;;;;;;5088255;28;19920;-59
2023/07/12 00:05:31;;;;;;;;;;;25.80;59.00;;;;;;5088371;28;19932;-59
2023/07/12 00:07:57;;;;;;;;;;;25.80;59.10;;;;;;5089553;28;20420;-59
2023/07/12 00:10:24;;;;;;;;;;;25.80;59.10;;;;;;5088426;28;19959;-59
2023/07/12 00:12:49;;;;;;;;;;;25.80;59.10;;;;;;5088471;28;20368;-58
2023/07/12 00:15:16;;;;;;;;;;;25.80;59.10;;;;;;5088348;28;19921;-59
2023/07/12 00:17:42;;;;;;;;;;;25.70;59.10;;;;;;5089485;28;19947;-59
2023/07/12 00:20:15;;;;;;;;;;;25.70;59.10;;;;;;5087996;28;20379;-59
2023/07/12 00:22:41;;;;;;;;;;;25.70;59.10;;;;;;5087956;28;20368;-58
2023/07/12 00:25:06;;;;;;;;;;;25.80;59.20;;;;;;5087811;28;19931;-59
2023/07/12 00:27:32;;;;;;;;;;;25.70;59.20;;;;;;5088134;28;19924;-58
2023/07/12 00:29:57;;;;;;;;;;;25.70;59.20;;;;;;5087860;28;19947;-58
2023/07/12 00:32:23;;;;;;;;;;;25.70;59.20;;;;;;5088179;28;19920;-59
2023/07/12 00:34:48;;;;;;;;;;;25.70;59.20;;;;;;5088898;28;19920;-59
2023/07/12 00:37:14;;;;;;;;;;;25.70;59.20;;;;;;5089043;28;19920;-59
2023/07/12 00:39:39;;;;;;;;;;;25.70;59.20;;;;;;5087855;28;20019;-59
2023/07/12 00:42:11;;;;;;;;;;;25.70;59.30;;;;;;5088910;28;20395;-59
2023/07/12 00:44:44;;;;;;;;;;;25.70;59.30;;;;;;5097579;28;19924;-58
2023/07/12 00:47:11;;;;;;;;;;;25.70;59.30;;;;;;5109203;28;19920;-59
2023/07/12 00:49:36;;;;;;;;;;;25.60;59.20;;;;;;5108971;28;20014;-59
2023/07/12 00:52:18;;;;;;;;;;;25.60;59.30;;;;;;5091029;28;20007;-59
2023/07/12 00:55:01;;;;;;;;;;;25.60;59.30;;;;;;5108934;28;20382;-59
2023/07/12 00:57:28;;;;;;;;;;;25.60;59.30;;;;;;5076907;28;20333;-59
2023/07/12 00:59:55;;;;;;;;;;;25.60;59.40;;;;;;5094039;28;20109;-59
2023/07/12 01:02:24;;;;;;;;;;;25.60;59.40;;;;;;5077373;28;19967;-59
2023/07/12 01:04:50;;;;;;;;;;;25.60;59.40;;;;;;5076977;28;20386;-59
2023/07/12 01:07:17;;;;;;;;;;;25.50;59.30;;;;;;5095335;28;19990;-59
2023/07/12 01:09:43;;;;;;;;;;;25.60;60.10;;;;;;5095297;28;20019;-59
2023/07/12 01:12:09;;;;;;;;;;;25.50;59.30;;;;;;5077215;28;19993;-59
2023/07/12 01:14:35;;;;;;;;;;;25.50;59.40;;;;;;5077137;28;19943;-58
2023/07/12 01:17:02;;;;;;;;;;;25.50;59.40;;;;;;5077036;28;19920;-59
2023/07/12 01:19:28;;;;;;;;;;;25.50;59.30;;;;;;5094958;28;20361;-58
2023/07/12 01:21:54;;;;;;;;;;;25.50;59.40;;;;;;5093751;28;19920;-59
2023/07/12 01:24:20;;;;;;;;;;;25.50;59.40;;;;;;5093618;28;20391;-58
2023/07/12 01:26:47;;;;;;;;;;;25.50;59.40;;;;;;5076745;28;19920;-59
2023/07/12 01:29:12;;;;;;;;;;;25.50;59.40;;;;;;5076528;28;19974;-59
2023/07/12 01:31:38;;;;;;;;;;;25.50;59.40;;;;;;5076752;28;19963;-59
2023/07/12 01:34:04;;;;;;;;;;;25.50;59.50;;;;;;5094640;28;19920;-59
2023/07/12 01:36:30;;;;;;;;;;;25.50;59.50;;;;;;5076625;28;19920;-59
2023/07/12 01:38:56;;;;;;;;;;;25.50;59.50;;;;;;5094568;28;19981;-58
2023/07/12 01:41:22;;;;;;;;;;;25.40;59.40;;;;;;5094442;28;19927;-58
2023/07/12 01:43:48;;;;;;;;;;;25.50;60.20;;;;;;5076263;28;19920;-59
2023/07/12 01:46:14;;;;;;;;;;;25.40;59.50;;;;;;5076304;28;20426;-58
2023/07/12 01:48:39;;;;;;;;;;;25.40;59.50;;;;;;5094287;28;19927;-58
2023/07/12 01:51:05;;;;;;;;;;;25.40;59.50;;;;;;5076424;28;19921;-58
2023/07/12 01:53:33;;;;;;;;;;;25.40;59.50;;;;;;5076391;28;20403;-59
2023/07/12 01:55:59;;;;;;;;;;;25.40;59.50;;;;;;5076351;28;19920;-59
2023/07/12 01:58:24;;;;;;;;;;;25.40;59.50;;;;;;5076279;28;19927;-59
2023/07/12 02:00:50;;;;;;;;;;;25.40;59.50;;;;;;5076011;28;20375;-58
2023/07/12 02:03:16;;;;;;;;;;;25.40;59.50;;;;;;5075876;28;19969;-58
2023/07/12 02:05:41;;;;;;;;;;;25.30;59.50;;;;;;5075858;28;19969;-58
2023/07/12 02:08:07;;;;;;;;;;;25.30;59.50;;;;;;5075187;28;19989;-59
2023/07/12 02:10:33;;;;;;;;;;;25.40;59.50;;;;;;5076059;28;19927;-59
2023/07/12 02:12:58;;;;;;;;;;;25.30;59.50;;;;;;5094002;28;20272;-58
2023/07/12 02:15:23;;;;;;;;;;;25.30;59.50;;;;;;5093947;28;19973;-58
2023/07/12 02:17:49;;;;;;;;;;;25.30;59.50;;;;;;5093720;28;19920;-58
2023/07/12 02:20:15;;;;;;;;;;;25.30;59.60;;;;;;5075963;28;20387;-59
2023/07/12 02:22:43;;;;;;;;;;;25.30;59.50;;;;;;5093551;28;19981;-58
2023/07/12 02:25:11;;;;;;;;;;;25.30;59.60;;;;;;5093636;28;19928;-59
2023/07/12 02:27:37;;;;;;;;;;;25.30;59.50;;;;;;5075605;28;19942;-59
2023/07/12 02:30:04;;;;;;;;;;;25.20;59.50;;;;;;5092535;28;20442;-58
2023/07/12 02:32:29;;;;;;;;;;;25.20;59.50;;;;;;5092289;28;19924;-58
2023/07/12 02:34:55;;;;;;;;;;;25.20;59.60;;;;;;5075508;28;20026;-58
2023/07/12 02:37:20;;;;;;;;;;;25.20;59.50;;;;;;5075268;28;19927;-58
2023/07/12 02:39:46;;;;;;;;;;;25.20;59.50;;;;;;5092024;28;20335;-58
2023/07/12 02:42:12;;;;;;;;;;;25.20;59.60;;;;;;5093518;28;20272;-58
2023/07/12 02:44:38;;;;;;;;;;;25.20;59.60;;;;;;5074717;28;19931;-58
2023/07/12 02:47:04;;;;;;;;;;;25.20;59.60;;;;;;5075378;28;19920;-59
2023/07/12 02:49:30;;;;;;;;;;;25.20;59.50;;;;;;5074985;28;19927;-58
2023/07/12 02:51:55;;;;;;;;;;;25.20;59.60;;;;;;5075236;28;19963;-59
2023/07/12 02:54:21;;;;;;;;;;;25.20;59.60;;;;;;5074917;28;20017;-59
2023/07/12 02:56:46;;;;;;;;;;;25.10;59.50;;;;;;5093104;28;19975;-59
2023/07/12 02:59:12;;;;;;;;;;;25.20;60.30;;;;;;5074846;28;19931;-59
2023/07/12 03:01:37;;;;;;;;;;;25.10;59.50;;;;;;5091759;28;19927;-58
2023/07/12 03:04:03;;;;;;;;;;;25.10;59.50;;;;;;5092806;28;19979;-58
2023/07/12 03:06:29;;;;;;;;;;;25.10;59.50;;;;;;5075097;28;19920;-58
2023/07/12 03:08:54;;;;;;;;;;;25.10;59.40;;;;;;5091856;28;19973;-59
2023/07/12 03:11:20;;;;;;;;;;;25.10;59.50;;;;;;5093026;28;20271;-59
2023/07/12 03:13:46;;;;;;;;;;;25.10;59.50;;;;;;5075045;28;19982;-59
2023/07/12 03:16:11;;;;;;;;;;;25.10;59.50;;;;;;5092730;28;19924;-59
2023/07/12 03:18:37;;;;;;;;;;;25.00;59.60;;;;;;5074679;28;20374;-59
2023/07/12 03:21:03;;;;;;;;;;;25.00;59.50;;;;;;5074551;28;19924;-59
2023/07/12 03:23:30;;;;;;;;;;;25.00;59.60;;;;;;5093104;28;20283;-58
2023/07/12 03:25:56;;;;;;;;;;;25.00;59.60;;;;;;5092492;28;19932;-59
2023/07/12 03:28:21;;;;;;;;;;;25.00;59.50;;;;;;5092677;28;19920;-59
2023/07/12 03:30:56;;;;;;;;;;;25.00;59.50;;;;;;5074426;28;19921;-58
2023/07/12 03:33:21;;;;;;;;;;;25.00;59.50;;;;;;5074427;28;19920;-58
2023/07/12 03:35:50;;;;;;;;;;;25.00;59.60;;;;;;5092428;28;19927;-59
2023/07/12 03:38:16;;;;;;;;;;;25.00;59.50;;;;;;5092410;28;19920;-59
2023/07/12 03:40:41;;;;;;;;;;;24.90;59.60;;;;;;5074368;28;19927;-59
2023/07/12 03:43:06;;;;;;;;;;;25.00;59.60;;;;;;5074637;28;20318;-59
2023/07/12 03:45:32;;;;;;;;;;;24.90;59.50;;;;;;5073961;28;19934;-59
2023/07/12 03:47:57;;;;;;;;;;;24.90;59.60;;;;;;5092403;28;19966;-59
2023/07/12 03:50:23;;;;;;;;;;;24.90;59.60;;;;;;5074265;28;19921;-59
2023/07/12 03:52:48;;;;;;;;;;;24.90;59.60;;;;;;5074542;28;19930;-59
2023/07/12 03:55:14;;;;;;;;;;;24.90;59.60;;;;;;5074138;28;19927;-59
2023/07/12 03:57:41;;;;;;;;;;;24.90;59.60;;;;;;5074137;28;20018;-59
2023/07/12 04:00:08;;;;;;;;;;;24.90;59.60;;;;;;5092514;28;19927;-58
2023/07/12 04:02:34;;;;;;;;;;;24.90;59.60;;;;;;5092251;28;19924;-59
2023/07/12 04:05:00;;;;;;;;;;;24.90;59.60;;;;;;5074244;28;19931;-59
2023/07/12 04:07:25;;;;;;;;;;;24.80;59.60;;;;;;5074350;28;19920;-58
2023/07/12 04:09:51;;;;;;;;;;;24.80;59.60;;;;;;5074414;28;19943;-59
2023/07/12 04:12:16;;;;;;;;;;;24.80;59.60;;;;;;5092119;28;20279;-58
2023/07/12 04:14:42;;;;;;;;;;;24.80;59.60;;;;;;5074054;28;19924;-59
2023/07/12 04:17:07;;;;;;;;;;;24.80;59.60;;;;;;5074300;28;19978;-59
2023/07/12 04:19:33;;;;;;;;;;;24.80;59.50;;;;;;5074030;28;19928;-58
2023/07/12 04:21:58;;;;;;;;;;;24.80;59.60;;;;;;5074137;28;19920;-58
2023/07/12 04:24:24;;;;;;;;;;;24.80;59.60;;;;;;5091968;28;19930;-58
2023/07/12 04:26:49;;;;;;;;;;;24.80;60.30;;;;;;5073750;28;19976;-59
2023/07/12 04:29:15;;;;;;;;;;;24.80;59.60;;;;;;5091988;28;20012;-59
2023/07/12 04:31:40;;;;;;;;;;;24.80;59.50;;;;;;5076173;28;19927;-58
2023/07/12 04:34:06;;;;;;;;;;;24.70;59.50;;;;;;5095790;28;19920;-59
2023/07/12 04:36:32;;;;;;;;;;;24.70;59.50;;;;;;5077692;28;19934;-58
2023/07/12 04:38:57;;;;;;;;;;;24.70;59.60;;;;;;5077673;28;19920;-59
2023/07/12 04:41:25;;;;;;;;;;;24.70;59.50;;;;;;5094650;28;19920;-58
2023/07/12 04:43:50;;;;;;;;;;;24.70;59.70;;;;;;5095226;28;19919;-58
2023/07/12 04:46:16;;;;;;;;;;;24.70;59.60;;;;;;5094593;28;20015;-58
2023/07/12 04:48:41;;;;;;;;;;;24.70;59.60;;;;;;5095890;28;19935;-59
2023/07/12 04:51:07;;;;;;;;;;;24.70;59.60;;;;;;5095517;28;19927;-59
2023/07/12 04:53:33;;;;;;;;;;;24.70;59.60;;;;;;5095377;28;20295;-59
2023/07/12 04:55:59;;;;;;;;;;;24.70;59.70;;;;;;5077462;28;20389;-59
2023/07/12 04:58:26;;;;;;;;;;;24.60;59.50;;;;;;5094373;28;19920;-58
2023/07/12 05:00:52;;;;;;;;;;;24.70;59.70;;;;;;5077229;28;19972;-58
2023/07/12 05:03:17;;;;;;;;;;;24.60;59.50;;;;;;5095185;28;20015;-58
2023/07/12 05:05:43;;;;;;;;;;;24.60;59.60;;;;;;5077014;28;20397;-59
2023/07/12 05:08:09;;;;;;;;;;;24.60;59.50;;;;;;5076876;28;19924;-58
2023/07/12 05:10:34;;;;;;;;;;;24.60;59.50;;;;;;5095075;28;20011;-58
2023/07/12 05:13:00;;;;;;;;;;;24.60;59.60;;;;;;5077193;28;20363;-59
2023/07/12 05:15:25;;;;;;;;;;;24.60;59.60;;;;;;5095119;28;20290;-58
2023/07/12 05:17:51;;;;;;;;;;;24.60;59.60;;;;;;5094023;28;19927;-59
2023/07/12 05:20:16;;;;;;;;;;;24.60;59.60;;;;;;5093565;28;20299;-58
2023/07/12 05:22:43;;;;;;;;;;;24.60;59.60;;;;;;5077014;28;19924;-58
2023/07/12 05:25:09;;;;;;;;;;;24.50;59.50;;;;;;5076608;28;20309;-58
2023/07/12 05:27:35;;;;;;;;;;;24.60;59.60;;;;;;5093625;28;20390;-58
2023/07/12 05:30:00;;;;;;;;;;;24.50;59.50;;;;;;5094893;28;19928;-58
2023/07/12 05:32:26;;;;;;;;;;;24.50;59.50;;;;;;5076870;28;19921;-59
2023/07/12 05:34:52;;;;;;;;;;;24.50;59.60;;;;;;5094710;28;19980;-58
2023/07/12 05:37:17;;;;;;;;;;;24.50;59.40;;;;;;5092360;28;20023;-58
2023/07/12 05:39:43;;;;;;;;;;;24.50;59.50;;;;;;5076021;28;19920;-60
2023/07/12 05:42:09;;;;;;;;;;;24.50;59.60;;;;;;5089226;28;20314;-60
2023/07/12 05:44:34;;;;;;;;;;;24.50;59.50;;;;;;5083882;28;19931;-59
2023/07/12 05:47:00;;;;;;;;;;;24.50;59.70;;;;;;5088010;28;19920;-60
2023/07/12 05:49:25;;;;;;;;;;;24.50;60.00;;;;;;5050371;28;20262;-59
2023/07/12 05:51:52;;;;;;;;;;;24.50;59.90;;;;;;5077320;28;19973;-59
2023/07/12 05:54:17;;;;;;;;;;;24.50;59.70;;;;;;5087506;28;20295;-59
2023/07/12 05:56:43;;;;;;;;;;;24.60;59.60;;;;;;5069301;28;19920;-59
2023/07/12 05:59:09;;;;;;;;;;;24.60;59.70;;;;;;5072904;28;19924;-59
2023/07/12 06:01:35;;;;;;;;;;;24.60;59.60;;;;;;5088345;28;19955;-60
2023/07/12 06:04:00;;;;;;;;;;;24.60;59.40;;;;;;5069589;28;19986;-59
2023/07/12 06:06:25;;;;;;;;;;;24.60;59.40;;;;;;5084829;28;20023;-59
2023/07/12 06:08:51;;;;;;;;;;;24.60;59.60;;;;;;5073271;28;20403;-59
2023/07/12 06:11:16;;;;;;;;;;;24.60;59.70;;;;;;5072153;28;19969;-59
2023/07/12 06:13:42;;;;;;;;;;;24.60;59.60;;;;;;5075524;28;19962;-59
2023/07/12 06:16:07;;;;;;;;;;;24.50;59.70;;;;;;5088551;28;19924;-59
2023/07/12 06:18:33;;;;;;;;;;;24.60;59.50;;;;;;5064705;28;20367;-60
2023/07/12 06:20:59;;;;;;;;;;;24.60;59.70;;;;;;5063352;28;19971;-59
2023/07/12 06:23:25;;;;;;;;;;;24.60;59.70;;;;;;5075759;28;20430;-59
2023/07/12 06:25:51;;;;;;;;;;;24.60;59.60;;;;;;5056727;28;20032;-59
2023/07/12 06:28:17;;;;;;;;;;;24.60;59.70;;;;;;5058108;28;19920;-58
2023/07/12 06:30:42;;;;;;;;;;;24.60;59.70;;;;;;5074226;28;19925;-59
2023/07/12 06:33:08;;;;;;;;;;;24.50;59.90;;;;;;5057013;28;19946;-58
2023/07/12 06:35:34;;;;;;;;;;;24.50;60.20;;;;;;5053778;28;20335;-58
2023/07/12 06:37:59;;;;;;;;;;;24.50;60.30;;;;;;5057871;28;19967;-59
2023/07/12 06:40:25;;;;;;;;;;;24.50;60.60;;;;;;5056964;28;19924;-58
2023/07/12 06:42:50;;;;;;;;;;;24.50;60.80;;;;;;5060096;28;19921;-58
2023/07/12 06:45:16;;;;;;;;;;;24.50;61.00;;;;;;5055964;28;20125;-58
2023/07/12 06:47:42;;;;;;;;;;;24.50;61.00;;;;;;5056377;28;19920;-59
2023/07/12 06:50:08;;;;;;;;;;;24.40;61.10;;;;;;5057279;28;19970;-58
2023/07/12 06:52:33;;;;;;;;;;;24.40;61.20;;;;;;5055344;28;19924;-58
2023/07/12 06:54:59;;;;;;;;;;;24.50;61.30;;;;;;5060217;28;19920;-61
2023/07/12 06:57:24;;;;;;;;;;;24.50;61.30;;;;;;5052950;28;20440;-59
2023/07/12 06:59:50;;;;;;;;;;;24.50;60.90;;;;;;5052582;28;19924;-58
2023/07/12 07:02:15;;;;;;;;;;;24.50;60.70;;;;;;5053259;28;20497;-59
2023/07/12 07:04:41;;;;;;;;;;;24.50;60.50;;;;;;5047158;28;19928;-59
2023/07/12 07:07:07;;;;;;;;;;;24.50;60.50;;;;;;5072952;28;20636;-58
2023/07/12 07:09:36;;;;;;;;;;;24.50;60.50;;;;;;5054898;28;19938;-58
2023/07/12 07:12:02;;;;;;;;;;;24.50;60.40;;;;;;5072051;28;20007;-58
2023/07/12 07:14:28;;;;;;;;;;;24.50;60.40;;;;;;5057061;28;19951;-59
2023/07/12 07:16:53;;;;;;;;;;;24.50;60.40;;;;;;5052243;28;19967;-58
2023/07/12 07:19:19;;;;;;;;;;;24.50;60.30;;;;;;5054208;28;19971;-58
2023/07/12 07:21:47;;;;;;;;;;;24.40;60.30;;;;;;5053295;28;19924;-59
2023/07/12 07:24:12;;;;;;;;;;;24.40;60.20;;;;;;5060245;28;20460;-58
2023/07/12 07:26:38;;;;;;;;;;;24.50;60.30;;;;;;5069717;28;19927;-59
2023/07/12 07:29:03;;;;;;;;;;;24.40;60.20;;;;;;5057787;28;20078;-58
2023/07/12 07:31:29;;;;;;;;;;;24.40;60.20;;;;;;5060294;28;19932;-58
2023/07/12 07:33:54;;;;;;;;;;;24.40;60.20;;;;;;5056497;28;20414;-58
2023/07/12 07:36:19;;;;;;;;;;;24.40;60.20;;;;;;5057870;28;20337;-60
2023/07/12 07:38:45;;;;;;;;;;;24.40;60.10;;;;;;5056922;28;19924;-58
2023/07/12 07:41:13;;;;;;;;;;;24.40;60.10;;;;;;5067713;28;19924;-58
2023/07/12 07:43:40;;;;;;;;;;;24.40;60.10;;;;;;5052985;28;19928;-58
2023/07/12 07:46:06;;;;;;;;;;;24.40;60.20;;;;;;5054479;28;19932;-58
2023/07/12 07:48:31;;;;;;;;;;;24.40;60.10;;;;;;5066838;28;20291;-58
2023/07/12 07:50:57;;;;;;;;;;;24.40;60.00;;;;;;5037897;28;19924;-58
2023/07/12 07:53:22;;;;;;;;;;;24.40;60.00;;;;;;5072194;28;19928;-58
2023/07/12 07:55:48;;;;;;;;;;;24.40;60.00;;;;;;5070835;28;20449;-58
2023/07/12 07:58:14;;;;;;;;;;;24.40;60.00;;;;;;5053251;28;20023;-59
2023/07/12 08:00:39;;;;;;;;;;;24.40;60.00;;;;;;5074803;28;19924;-58
2023/07/12 08:03:05;;;;;;;;;;;24.40;60.00;;;;;;5054311;28;20059;-58
2023/07/12 08:05:31;;;;;;;;;;;24.40;60.00;;;;;;5052554;28;20470;-58
2023/07/12 08:07:57;;;;;;;;;;;24.40;60.00;;;;;;5075074;28;19935;-58
2023/07/12 08:10:22;;;;;;;;;;;24.30;59.80;;;;;;5073596;28;19928;-58
2023/07/12 08:12:48;;;;;;;;;;;24.40;59.80;;;;;;5060532;28;19925;-58
2023/07/12 08:15:14;;;;;;;;;;;24.30;59.80;;;;;;5078286;28;20463;-57
2023/07/12 08:17:40;;;;;;;;;;;24.30;59.80;;;;;;5067834;28;19947;-59
2023/07/12 08:20:07;;;;;;;;;;;24.30;59.80;;;;;;5072517;28;19983;-58
2023/07/12 08:22:32;;;;;;;;;;;24.30;59.80;;;;;;5080281;28;20398;-58
2023/07/12 08:24:58;;;;;;;;;;;24.40;59.80;;;;;;5058008;28;19932;-57
2023/07/12 08:27:23;;;;;;;;;;;24.30;59.80;;;;;;5054916;28;19925;-57
2023/07/12 08:29:49;;;;;;;;;;;24.40;59.90;;;;;;5056572;28;20710;-58
2023/07/12 08:32:15;;;;;;;;;;;24.40;59.90;;;;;;5055899;28;20084;-58
2023/07/12 08:34:40;;;;;;;;;;;24.40;59.80;;;;;;5054742;28;20423;-58
2023/07/12 08:37:06;;;;;;;;;;;24.30;59.70;;;;;;5068141;28;19930;-61
2023/07/12 08:39:32;;;;;;;;;;;24.30;59.70;;;;;;5072711;28;20375;-59
2023/07/12 08:41:58;;;;;;;;;;;24.30;59.60;;;;;;5076003;28;19931;-58
2023/07/12 08:44:24;;;;;;;;;;;24.40;59.70;;;;;;5070549;28;19935;-58
2023/07/12 08:46:51;;;;;;;;;;;24.30;59.60;;;;;;5072965;28;19932;-58
2023/07/12 08:49:17;;;;;;;;;;;24.40;59.70;;;;;;5063566;28;20433;-58
2023/07/12 08:51:43;;;;;;;;;;;24.30;59.60;;;;;;5060537;28;19924;-58
2023/07/12 08:54:22;;;;;;;;;;;24.30;59.60;;;;;;5057173;28;19924;-58
2023/07/12 08:56:48;;;;;;;;;;;24.30;59.50;;;;;;5073142;28;19945;-57
2023/07/12 08:59:15;;;;;;;;;;;24.30;59.50;;;;;;5076184;28;19920;-58
2023/07/12 09:04:23;;;;;;;;;;;24.30;59.60;;;;;;5089179;27;19920;-56
2023/07/12 09:06:50;;;;;;;;;;;24.30;59.60;;;;;;5081522;28;20330;-57
2023/07/12 09:09:17;;;;;;;;;;;24.30;59.50;;;;;;5082581;28;19932;-58
2023/07/12 09:11:43;;;;;;;;;;;24.30;59.40;;;;;;5117849;27;19924;-57
2023/07/12 09:14:13;;;;;;;;;;;24.30;59.50;;;;;;5076841;28;19932;-57
2023/07/12 09:16:39;;;;;;;;;;;24.30;59.40;;;;;;5070586;28;19928;-58
2023/07/12 09:19:13;;;;;;;;;;;24.30;59.50;;;;;;5094982;28;19925;-58
2023/07/12 09:21:39;;;;;;;;;;;24.30;59.50;;;;;;5082240;28;20551;-57
2023/07/12 09:24:13;;;;;;;;;;;24.30;59.50;;;;;;5081406;28;19935;-58
2023/07/12 09:26:39;;;;;;;;;;;24.30;59.50;;;;;;5070734;28;19924;-57
2023/07/12 09:29:07;;;;;;;;;;;24.30;59.50;;;;;;5082787;28;19927;-57
2023/07/12 09:31:34;;;;;;;;;;;24.30;59.60;;;;;;5079474;28;19924;-57
2023/07/12 09:34:03;;;;;;;;;;;24.40;59.50;;;;;;5080044;28;19927;-58
2023/07/12 09:36:29;;;;;;;;;;;24.40;59.40;;;;;;5081015;28;19989;-58
2023/07/12 09:39:04;;;;;;;;;;;24.30;59.30;;;;;;5074810;28;19971;-58
2023/07/12 09:41:30;;;;;;;;;;;24.40;59.30;;;;;;5069672;28;20298;-58
2023/07/12 09:43:56;;;;;;;;;;;24.40;59.40;;;;;;5085871;28;19931;-58
2023/07/12 09:49:12;;;;;;;;;;;24.40;59.40;;;;;;5093055;27;19920;-58
2023/07/12 09:54:27;;;;;;;;;;;24.30;59.40;;;;;;5065922;28;19927;-58
2023/07/12 09:56:54;;;;;;;;;;;24.40;59.40;;;;;;5058847;28;19959;-58
2023/07/12 10:02:22;;;;;;;;;;;24.40;59.30;;;;;;5090271;27;19920;-58
2023/07/12 10:04:50;;;;;;;;;;;24.30;59.30;;;;;;5070008;28;19931;-58
2023/07/12 10:07:31;;;;;;;;;;;24.40;59.30;;;;;;5072927;28;19921;-58
2023/07/12 10:09:57;;;;;;;;;;;24.40;59.40;;;;;;5072866;28;19928;-58
2023/07/12 10:12:26;;;;;;;;;;;24.40;59.40;;;;;;5071853;28;19985;-58
2023/07/12 10:14:53;;;;;;;;;;;24.40;59.40;;;;;;5068771;28;19925;-58
2023/07/12 10:17:24;;;;;;;;;;;24.50;59.40;;;;;;5072577;28;19954;-58
2023/07/12 10:19:53;;;;;;;;;;;24.50;59.40;;;;;;5108638;27;19979;-58
2023/07/12 10:22:24;;;;;;;;;;;24.50;59.30;;;;;;5076526;28;19973;-58
2023/07/12 10:24:50;;;;;;;;;;;24.50;59.30;;;;;;5069335;28;19921;-58
2023/07/12 10:27:19;;;;;;;;;;;24.50;59.30;;;;;;5062394;28;20427;-59
2023/07/12 10:29:48;;;;;;;;;;;24.50;59.20;;;;;;5069770;28;19931;-59
2023/07/12 10:32:18;;;;;;;;;;;24.50;59.20;;;;;;5075498;28;19924;-59
2023/07/12 10:34:46;;;;;;;;;;;24.50;59.20;;;;;;5067242;28;19932;-60
2023/07/12 10:37:31;;;;;;;;;;;24.50;59.20;;;;;;5071601;28;20006;-59
2023/07/12 10:39:58;;;;;;;;;;;24.60;59.20;;;;;;5078875;28;20019;-59
2023/07/12 10:45:17;;;;;;;;;;;24.50;59.10;;;;;;5093606;27;19916;-58
2023/07/12 10:47:43;;;;;;;;;;;24.50;59.10;;;;;;5086982;28;19928;-58
2023/07/12 10:50:28;;;;;;;;;;;24.50;59.10;;;;;;5093286;28;19928;-58
2023/07/12 10:52:56;;;;;;;;;;;24.60;59.20;;;;;;5103943;28;19928;-58
2023/07/12 10:55:37;;;;;;;;;;;24.50;59.10;;;;;;5102958;28;19920;-58
2023/07/12 10:58:23;;;;;;;;;;;24.60;59.10;;;;;;5104197;28;20445;-59
2023/07/12 11:00:50;;;;;;;;;;;24.60;59.20;;;;;;5102643;28;19920;-58
2023/07/12 11:03:20;;;;;;;;;;;24.60;59.20;;;;;;5105314;28;19931;-58
2023/07/12 11:05:56;;;;;;;;;;;24.50;59.10;;;;;;5104717;28;19920;-58
2023/07/12 11:08:38;;;;;;;;;;;24.60;59.10;;;;;;5104006;28;19966;-58
2023/07/12 11:13:53;;;;;;;;;;;24.50;59.00;;;;;;5103396;27;20485;-58
2023/07/12 11:16:19;;;;;;;;;;;24.60;59.10;;;;;;5087635;28;19927;-57
2023/07/12 11:18:50;;;;;;;;;;;24.50;59.10;;;;;;5087687;28;19924;-58
2023/07/12 11:21:35;;;;;;;;;;;24.50;59.10;;;;;;5092078;28;19920;-57
2023/07/12 11:24:20;;;;;;;;;;;24.60;59.10;;;;;;5085666;28;19927;-58
2023/07/12 11:26:52;;;;;;;;;;;24.50;59.10;;;;;;5090352;28;19984;-59
2023/07/12 11:32:25;;;;;;;;;;;24.50;59.00;;;;;;5125033;27;19912;-58
2023/07/12 11:34:57;;;;;;;;;;;24.50;59.00;;;;;;5123298;28;19926;-58
2023/07/12 11:37:30;;;;;;;;;;;24.60;59.20;;;;;;5122948;28;19923;-58
2023/07/12 11:39:55;;;;;;;;;;;24.50;59.00;;;;;;5124436;28;20621;-58
2023/07/12 11:42:24;;;;;;;;;;;24.50;59.00;;;;;;5121801;28;20006;-57
2023/07/12 11:45:09;;;;;;;;;;;24.60;59.10;;;;;;5115695;28;19920;-58
2023/07/12 11:47:35;;;;;;;;;;;24.60;59.30;;;;;;5103574;28;20033;-57
2023/07/12 11:50:01;;;;;;;;;;;24.60;59.00;;;;;;5138332;27;19951;-58
2023/07/12 11:52:27;;;;;;;;;;;24.60;59.00;;;;;;5104972;28;19970;-57
2023/07/12 11:54:53;;;;;;;;;;;24.50;58.90;;;;;;5103617;28;19920;-58
2023/07/12 11:57:19;;;;;;;;;;;24.60;59.00;;;;;;5104922;28;19931;-58
2023/07/12 11:59:46;;;;;;;;;;;24.50;58.90;;;;;;5105130;28;19926;-58
2023/07/12 12:02:13;;;;;;;;;;;24.50;58.90;;;;;;5104302;28;19927;-58
2023/07/12 12:04:39;;;;;;;;;;;24.50;58.90;;;;;;5106196;28;19939;-58
2023/07/12 12:07:24;;;;;;;;;;;24.60;58.90;;;;;;5104527;28;19920;-57
2023/07/12 12:09:50;;;;;;;;;;;24.50;58.80;;;;;;5104863;28;20015;-58
2023/07/12 12:12:16;;;;;;;;;;;24.50;58.80;;;;;;5105121;28;20012;-57
2023/07/12 12:14:42;;;;;;;;;;;24.60;58.80;;;;;;5105203;28;19981;-57
2023/07/12 12:17:15;;;;;;;;;;;24.50;58.80;;;;;;5104832;28;19920;-57
2023/07/12 12:19:40;;;;;;;;;;;24.50;58.80;;;;;;5104716;28;20426;-57
2023/07/12 12:22:14;;;;;;;;;;;24.50;58.70;;;;;;5105736;28;19920;-58
2023/07/12 12:24:42;;;;;;;;;;;24.50;58.70;;;;;;5140305;27;19931;-57
2023/07/12 12:27:15;;;;;;;;;;;24.50;58.70;;;;;;5111686;28;19924;-59
2023/07/12 12:29:41;;;;;;;;;;;24.50;58.70;;;;;;5125809;27;20330;-57
2023/07/12 12:32:12;;;;;;;;;;;24.50;58.70;;;;;;5123684;28;20131;-57
2023/07/12 12:34:43;;;;;;;;;;;24.50;58.70;;;;;;5124301;28;20306;-57
2023/07/12 12:37:11;;;;;;;;;;;24.50;58.60;;;;;;5124596;28;20441;-57
2023/07/12 12:39:36;;;;;;;;;;;24.50;58.60;;;;;;5124012;28;20426;-57
2023/07/12 12:42:06;;;;;;;;;;;24.50;58.50;;;;;;5119016;28;19920;-57
2023/07/12 12:44:36;;;;;;;;;;;24.50;58.50;;;;;;5110892;28;20492;-57
2023/07/12 12:47:11;;;;;;;;;;;24.60;58.60;;;;;;5111129;28;20382;-57
2023/07/12 12:49:37;;;;;;;;;;;24.50;58.40;;;;;;5111366;28;20424;-58
2023/07/12 12:52:22;;;;;;;;;;;24.50;58.40;;;;;;5111639;28;19924;-57
2023/07/12 12:54:47;;;;;;;;;;;24.50;58.40;;;;;;5110612;28;20423;-57
2023/07/12 12:57:13;;;;;;;;;;;24.50;58.30;;;;;;5110917;28;19926;-57
2023/07/12 12:59:39;;;;;;;;;;;24.50;58.20;;;;;;5107279;28;19919;-57
2023/07/12 13:02:13;;;;;;;;;;;24.50;58.20;;;;;;5108861;28;20007;-57
2023/07/12 13:04:38;;;;;;;;;;;24.50;58.20;;;;;;5134091;27;20519;-57
2023/07/12 13:07:04;;;;;;;;;;;24.50;58.20;;;;;;5108966;28;19924;-57
2023/07/12 13:09:31;;;;;;;;;;;24.50;58.20;;;;;;5112042;28;19955;-57
2023/07/12 13:11:56;;;;;;;;;;;24.50;58.10;;;;;;5110326;28;19926;-57
2023/07/12 13:14:22;;;;;;;;;;;24.50;58.10;;;;;;5111129;28;19928;-57
2023/07/12 13:16:47;;;;;;;;;;;24.60;58.20;;;;;;5112581;28;19931;-57
2023/07/12 13:19:13;;;;;;;;;;;24.50;58.00;;;;;;5111253;28;19924;-57
2023/07/12 13:21:40;;;;;;;;;;;24.50;57.40;;;;;;5112782;28;19926;-58
2023/07/12 13:24:06;;;;;;;;;;;24.60;57.20;;;;;;5112025;28;19980;-57
2023/07/12 13:26:32;;;;;;;;;;;24.60;56.90;;;;;;5109569;28;20371;-57
2023/07/12 13:28:57;;;;;;;;;;;24.70;56.70;;;;;;5110332;28;19980;-58
2023/07/12 13:31:24;;;;;;;;;;;24.70;56.50;;;;;;5109934;28;19928;-58
2023/07/12 13:33:49;;;;;;;;;;;24.60;56.70;;;;;;5112165;28;20010;-58
2023/07/12 13:36:30;;;;;;;;;;;24.70;56.80;;;;;;5112061;28;20465;-57
2023/07/12 13:38:59;;;;;;;;;;;24.70;56.90;;;;;;5103752;28;20011;-58
2023/07/12 13:41:25;;;;;;;;;;;24.70;56.90;;;;;;5112099;28;19972;-58
2023/07/12 13:43:53;;;;;;;;;;;24.70;57.00;;;;;;5112471;28;20010;-58
2023/07/12 13:46:18;;;;;;;;;;;24.60;56.90;;;;;;5111364;28;19976;-58
2023/07/12 13:48:44;;;;;;;;;;;24.70;57.00;;;;;;5112213;28;19924;-58
2023/07/12 13:51:17;;;;;;;;;;;24.70;57.00;;;;;;5112348;28;19923;-59
2023/07/12 13:53:42;;;;;;;;;;;24.70;56.90;;;;;;5128551;27;19930;-58
2023/07/12 13:56:08;;;;;;;;;;;24.60;56.90;;;;;;5110906;28;19919;-58
2023/07/12 13:58:33;;;;;;;;;;;24.60;56.90;;;;;;5110694;28;19928;-58
2023/07/12 14:00:59;;;;;;;;;;;24.70;56.90;;;;;;5111160;28;19920;-58
2023/07/12 14:03:24;;;;;;;;;;;24.60;56.80;;;;;;5112604;28;19942;-58
2023/07/12 14:05:50;;;;;;;;;;;24.60;56.80;;;;;;5112009;28;19927;-58
2023/07/12 14:08:15;;;;;;;;;;;24.60;57.10;;;;;;5110728;28;20708;-58
2023/07/12 14:10:41;;;;;;;;;;;24.60;56.80;;;;;;5113529;28;19927;-58
2023/07/12 14:13:15;;;;;;;;;;;24.60;56.80;;;;;;5113863;28;19920;-58
2023/07/12 14:15:41;;;;;;;;;;;24.60;56.80;;;;;;5112469;28;20573;-58
2023/07/12 14:18:08;;;;;;;;;;;24.70;56.90;;;;;;5111493;28;19983;-58
2023/07/12 14:20:34;;;;;;;;;;;24.60;56.80;;;;;;5109501;28;20026;-58
2023/07/12 14:22:59;;;;;;;;;;;24.60;56.80;;;;;;5112052;28;20014;-58
2023/07/12 14:25:25;;;;;;;;;;;24.60;56.80;;;;;;5111148;28;20008;-58
2023/07/12 14:27:51;;;;;;;;;;;24.60;56.70;;;;;;5112657;28;19976;-58
2023/07/12 14:30:16;;;;;;;;;;;24.60;56.70;;;;;;5110252;28;20389;-58
2023/07/12 14:32:44;;;;;;;;;;;24.60;56.70;;;;;;5112568;28;19972;-58
2023/07/12 14:35:13;;;;;;;;;;;24.60;56.60;;;;;;5113101;27;19920;-58